sensor_id;sensor_type;location;lat;lon;timestamp;pressure;altitude;pressure_sealevel;temperature;humidity
25610;BME280;13479;49.044;8.716;2023-03-31T04:00:23;97836.13;;;11.31;69.55
25610;BME280;13479;49.044;8.716;2023-03-31T04:02:48;97845.41;;;11.27;69.81
25610;BME280;13479;49.044;8.716;2023-03-31T04:05:14;97839.78;;;11.30;69.51
25610;BME280;13479;49.044;8.716;2023-03-31T04:07:39;97864.00;;;11.35;69.17
25610;BME280;13479;49.044;8.716;2023-03-31T04:10:05;97884.63;;;11.41;68.90
25610;BME280;13479;49.044;8.716;2023-03-31T04:12:33;97906.50;;;11.43;69.00
25610;BME280;13479;49.044;8.716;2023-03-31T04:14:58;97930.28;;;11.45;68.97
25610;BME280;13479;49.044;8.716;2023-03-31T04:17:24;97907.19;;;11.46;68.85
25610;BME280;13479;49.044;8.716;2023-03-31T04:19:57;97909.88;;;11.54;68.47
25610;BME280;13479;49.044;8.716;2023-03-31T04:22:27;97893.75;;;11.47;69.21
25610;BME280;13479;49.044;8.716;2023-03-31T04:24:54;97883.75;;;11.49;69.42
25610;BME280;13479;49.044;8.716;2023-03-31T04:27:23;97876.31;;;11.53;69.22
25610;BME280;13479;49.044;8.716;2023-03-31T04:29:52;97846.09;;;11.54;69.06
25610;BME280;13479;49.044;8.716;2023-03-31T04:32:19;97851.72;;;11.59;68.80
25610;BME280;13479;49.044;8.716;2023-03-31T04:34:46;97842.41;;;11.55;69.01
25610;BME280;13479;49.044;8.716;2023-03-31T04:37:11;97852.69;;;11.58;68.71
25610;BME280;13479;49.044;8.716;2023-03-31T04:39:37;97835.09;;;11.57;68.89
25610;BME280;13479;49.044;8.716;2023-03-31T04:42:02;97801.53;;;11.56;69.87
25610;BME280;13479;49.044;8.716;2023-03-31T04:44:28;97776.81;;;11.47;71.47
25610;BME280;13479;49.044;8.716;2023-03-31T04:46:54;97786.81;;;11.37;73.13
25610;BME280;13479;49.044;8.716;2023-03-31T04:49:19;97824.16;;;11.27;73.42
25610;BME280;13479;49.044;8.716;2023-03-31T04:51:45;97831.47;;;11.25;73.54
25610;BME280;13479;49.044;8.716;2023-03-31T04:54:11;97841.91;;;11.18;74.25
25610;BME280;13479;49.044;8.716;2023-03-31T04:56:36;97848.06;;;11.19;74.53
25610;BME280;13479;49.044;8.716;2023-03-31T04:59:02;97869.63;;;11.24;74.05
25610;BME280;13479;49.044;8.716;2023-03-31T05:01:28;97875.94;;;11.23;74.36
25610;BME280;13479;49.044;8.716;2023-03-31T05:03:57;97883.41;;;11.27;74.19
25610;BME280;13479;49.044;8.716;2023-03-31T05:06:22;97862.00;;;11.21;74.91
25610;BME280;13479;49.044;8.716;2023-03-31T05:08:47;97863.66;;;11.22;75.41
25610;BME280;13479;49.044;8.716;2023-03-31T05:11:12;97875.81;;;11.33;75.13
25610;BME280;13479;49.044;8.716;2023-03-31T05:13:38;97870.31;;;11.26;75.58
25610;BME280;13479;49.044;8.716;2023-03-31T05:16:11;97889.22;;;11.23;76.15
25610;BME280;13479;49.044;8.716;2023-03-31T05:18:38;97892.25;;;11.20;77.27
25610;BME280;13479;49.044;8.716;2023-03-31T05:21:14;97912.31;;;11.22;77.37
25610;BME280;13479;49.044;8.716;2023-03-31T05:23:40;97912.47;;;11.21;77.62
25610;BME280;13479;49.044;8.716;2023-03-31T05:26:05;97904.97;;;11.08;79.16
25610;BME280;13479;49.044;8.716;2023-03-31T05:28:32;97912.81;;;11.26;78.82
25610;BME280;13479;49.044;8.716;2023-03-31T05:30:58;97896.03;;;11.09;80.06
25610;BME280;13479;49.044;8.716;2023-03-31T05:33:25;97895.84;;;11.10;80.64
25610;BME280;13479;49.044;8.716;2023-03-31T05:35:50;97888.91;;;11.18;80.71
25610;BME280;13479;49.044;8.716;2023-03-31T05:38:15;97864.16;;;11.09;81.56
25610;BME280;13479;49.044;8.716;2023-03-31T05:40:41;97848.56;;;11.22;81.56
25610;BME280;13479;49.044;8.716;2023-03-31T05:43:06;97847.53;;;10.99;83.66
25610;BME280;13479;49.044;8.716;2023-03-31T05:45:31;97862.97;;;10.95;85.06
25610;BME280;13479;49.044;8.716;2023-03-31T05:47:56;97870.41;;;10.83;85.79
25610;BME280;13479;49.044;8.716;2023-03-31T05:50:22;97875.53;;;10.76;86.14
25610;BME280;13479;49.044;8.716;2023-03-31T05:52:47;97883.16;;;10.71;86.76
25610;BME280;13479;49.044;8.716;2023-03-31T05:55:12;97886.81;;;10.70;86.98
25610;BME280;13479;49.044;8.716;2023-03-31T05:57:37;97881.44;;;10.54;88.00
25610;BME280;13479;49.044;8.716;2023-03-31T06:00:04;97873.75;;;10.42;89.35
25610;BME280;13479;49.044;8.716;2023-03-31T06:02:31;97883.06;;;10.46;89.99
25610;BME280;13479;49.044;8.716;2023-03-31T06:04:57;97883.78;;;10.65;90.67
25610;BME280;13479;49.044;8.716;2023-03-31T06:07:23;97880.66;;;10.70;90.59
25610;BME280;13479;49.044;8.716;2023-03-31T06:09:49;97876.69;;;10.74;90.93
25610;BME280;13479;49.044;8.716;2023-03-31T06:12:15;97859.75;;;10.66;91.32
25610;BME280;13479;49.044;8.716;2023-03-31T06:14:41;97872.25;;;10.82;91.08
25610;BME280;13479;49.044;8.716;2023-03-31T06:17:06;97879.72;;;10.95;90.34
25610;BME280;13479;49.044;8.716;2023-03-31T06:19:31;97877.75;;;10.97;90.32
25610;BME280;13479;49.044;8.716;2023-03-31T06:21:57;97861.63;;;10.99;90.98
25610;BME280;13479;49.044;8.716;2023-03-31T06:24:22;97863.34;;;11.08;90.79
25610;BME280;13479;49.044;8.716;2023-03-31T06:26:47;97850.69;;;11.10;90.54
25610;BME280;13479;49.044;8.716;2023-03-31T06:29:13;97890.91;;;11.24;89.30
25610;BME280;13479;49.044;8.716;2023-03-31T06:31:38;97856.00;;;11.10;90.00
25610;BME280;13479;49.044;8.716;2023-03-31T06:34:03;97815.69;;;10.99;91.40
25610;BME280;13479;49.044;8.716;2023-03-31T06:36:28;97821.16;;;11.13;89.75
25610;BME280;13479;49.044;8.716;2023-03-31T06:38:54;97844.41;;;11.11;88.44
25610;BME280;13479;49.044;8.716;2023-03-31T06:41:19;97812.69;;;11.18;87.44
25610;BME280;13479;49.044;8.716;2023-03-31T06:43:46;97783.66;;;11.17;87.49
25610;BME280;13479;49.044;8.716;2023-03-31T06:46:12;97787.63;;;11.29;87.37
25610;BME280;13479;49.044;8.716;2023-03-31T06:48:38;97775.16;;;11.30;88.34
25610;BME280;13479;49.044;8.716;2023-03-31T06:51:04;97788.94;;;11.41;87.57
25610;BME280;13479;49.044;8.716;2023-03-31T06:53:30;97807.53;;;11.50;87.47
25610;BME280;13479;49.044;8.716;2023-03-31T06:55:55;97822.16;;;11.54;86.86
25610;BME280;13479;49.044;8.716;2023-03-31T06:58:21;97805.19;;;11.55;86.62
25610;BME280;13479;49.044;8.716;2023-03-31T07:00:46;97806.84;;;11.72;85.05
25610;BME280;13479;49.044;8.716;2023-03-31T07:03:13;97778.03;;;11.93;81.78
25610;BME280;13479;49.044;8.716;2023-03-31T07:05:38;97729.91;;;12.11;79.99
25610;BME280;13479;49.044;8.716;2023-03-31T07:08:04;97657.75;;;12.14;78.85
25610;BME280;13479;49.044;8.716;2023-03-31T07:10:30;97662.78;;;12.09;79.48
25610;BME280;13479;49.044;8.716;2023-03-31T07:12:56;97680.63;;;12.23;78.90
25610;BME280;13479;49.044;8.716;2023-03-31T07:15:22;97685.00;;;12.47;77.71
25610;BME280;13479;49.044;8.716;2023-03-31T07:17:47;97692.63;;;12.74;75.41
25610;BME280;13479;49.044;8.716;2023-03-31T07:20:16;97691.53;;;12.83;75.51
25610;BME280;13479;49.044;8.716;2023-03-31T07:22:46;97644.50;;;12.90;76.51
25610;BME280;13479;49.044;8.716;2023-03-31T07:25:14;97653.56;;;13.19;76.02
25610;BME280;13479;49.044;8.716;2023-03-31T07:27:40;97709.97;;;13.61;72.79
25610;BME280;13479;49.044;8.716;2023-03-31T07:30:08;97697.16;;;13.86;71.25
25610;BME280;13479;49.044;8.716;2023-03-31T07:32:34;97685.56;;;15.24;69.56
25610;BME280;13479;49.044;8.716;2023-03-31T07:35:04;97709.69;;;17.37;63.31
25610;BME280;13479;49.044;8.716;2023-03-31T07:37:44;97672.22;;;18.35;58.97
25610;BME280;13479;49.044;8.716;2023-03-31T07:40:12;97631.69;;;18.68;56.15
25610;BME280;13479;49.044;8.716;2023-03-31T07:42:39;97639.25;;;19.48;53.25
25610;BME280;13479;49.044;8.716;2023-03-31T07:45:06;97626.25;;;19.26;52.15
25610;BME280;13479;49.044;8.716;2023-03-31T07:47:31;97626.38;;;19.12;52.45
25610;BME280;13479;49.044;8.716;2023-03-31T07:49:57;97628.66;;;18.58;51.65
25610;BME280;13479;49.044;8.716;2023-03-31T07:52:22;97572.19;;;18.08;54.16
25610;BME280;13479;49.044;8.716;2023-03-31T07:54:48;97587.03;;;18.42;52.30
25610;BME280;13479;49.044;8.716;2023-03-31T07:57:14;97608.94;;;18.07;53.05
25610;BME280;13479;49.044;8.716;2023-03-31T07:59:41;97643.56;;;19.11;50.75
25610;BME280;13479;49.044;8.716;2023-03-31T08:02:10;97648.88;;;20.84;46.72
25610;BME280;13479;49.044;8.716;2023-03-31T08:04:36;97643.25;;;20.86;45.62
25610;BME280;13479;49.044;8.716;2023-03-31T08:07:01;97649.94;;;20.41;46.02
25610;BME280;13479;49.044;8.716;2023-03-31T08:09:26;97659.22;;;21.70;43.76
25610;BME280;13479;49.044;8.716;2023-03-31T08:11:51;97662.63;;;23.33;40.68
25610;BME280;13479;49.044;8.716;2023-03-31T08:14:17;97659.38;;;24.14;38.61
25610;BME280;13479;49.044;8.716;2023-03-31T08:16:42;97662.50;;;23.22;39.24
25610;BME280;13479;49.044;8.716;2023-03-31T08:19:07;97678.63;;;22.83;39.19
25610;BME280;13479;49.044;8.716;2023-03-31T08:21:32;97668.66;;;21.97;40.49
25610;BME280;13479;49.044;8.716;2023-03-31T08:23:58;97686.38;;;23.65;37.72
25610;BME280;13479;49.044;8.716;2023-03-31T08:26:23;97674.28;;;24.94;34.62
25610;BME280;13479;49.044;8.716;2023-03-31T08:28:50;97679.97;;;26.31;33.10
25610;BME280;13479;49.044;8.716;2023-03-31T08:31:17;97676.22;;;27.46;31.39
25610;BME280;13479;49.044;8.716;2023-03-31T08:33:43;97704.28;;;27.21;31.64
25610;BME280;13479;49.044;8.716;2023-03-31T08:36:09;97696.03;;;26.38;32.38
25610;BME280;13479;49.044;8.716;2023-03-31T08:38:40;97716.72;;;24.28;34.27
25610;BME280;13479;49.044;8.716;2023-03-31T08:41:12;97682.63;;;22.80;37.14
25610;BME280;13479;49.044;8.716;2023-03-31T08:43:44;97655.84;;;23.30;37.91
25610;BME280;13479;49.044;8.716;2023-03-31T08:46:12;97644.53;;;22.82;38.26
25610;BME280;13479;49.044;8.716;2023-03-31T08:48:41;97637.34;;;22.42;38.29
25610;BME280;13479;49.044;8.716;2023-03-31T08:51:17;97615.72;;;23.27;37.30
25610;BME280;13479;49.044;8.716;2023-03-31T08:53:54;97659.34;;;24.36;35.26
25610;BME280;13479;49.044;8.716;2023-03-31T08:56:25;97665.78;;;24.58;34.90
25610;BME280;13479;49.044;8.716;2023-03-31T08:58:51;97692.16;;;24.13;34.28
25610;BME280;13479;49.044;8.716;2023-03-31T09:01:43;97690.84;;;24.97;33.51
25610;BME280;13479;49.044;8.716;2023-03-31T09:07:15;97677.00;;;26.59;30.21
25610;BME280;13479;49.044;8.716;2023-03-31T09:09:57;97690.06;;;26.67;30.33
25610;BME280;13479;49.044;8.716;2023-03-31T09:15:31;97695.25;;;28.38;28.78
25610;BME280;13479;49.044;8.716;2023-03-31T09:18:08;97691.31;;;28.59;27.47
25610;BME280;13479;49.044;8.716;2023-03-31T09:20:38;97678.66;;;27.37;28.61
25610;BME280;13479;49.044;8.716;2023-03-31T09:23:28;97684.66;;;26.62;29.30
25610;BME280;13479;49.044;8.716;2023-03-31T09:25:56;97683.00;;;26.50;29.54
25610;BME280;13479;49.044;8.716;2023-03-31T09:28:29;97682.53;;;26.95;29.75
25610;BME280;13479;49.044;8.716;2023-03-31T09:30:56;97683.34;;;27.01;28.42
25610;BME280;13479;49.044;8.716;2023-03-31T09:33:27;97682.75;;;26.73;28.26
25610;BME280;13479;49.044;8.716;2023-03-31T09:35:56;97674.28;;;26.59;28.61
25610;BME280;13479;49.044;8.716;2023-03-31T09:38:22;97665.59;;;26.77;28.17
25610;BME280;13479;49.044;8.716;2023-03-31T09:40:47;97655.75;;;27.59;28.29
25610;BME280;13479;49.044;8.716;2023-03-31T09:45:38;97659.88;;;26.63;27.99
25610;BME280;13479;49.044;8.716;2023-03-31T09:48:11;97670.84;;;25.09;29.33
25610;BME280;13479;49.044;8.716;2023-03-31T09:50:43;97643.28;;;23.63;30.74
25610;BME280;13479;49.044;8.716;2023-03-31T09:53:17;97635.03;;;22.33;33.36
25610;BME280;13479;49.044;8.716;2023-03-31T09:55:50;97625.06;;;20.81;35.27
25610;BME280;13479;49.044;8.716;2023-03-31T09:58:16;97612.41;;;19.41;37.91
25610;BME280;13479;49.044;8.716;2023-03-31T10:00:55;97625.00;;;20.57;37.35
25610;BME280;13479;49.044;8.716;2023-03-31T10:03:23;97616.59;;;22.01;36.43
25610;BME280;13479;49.044;8.716;2023-03-31T10:05:50;97603.97;;;22.65;34.42
25610;BME280;13479;49.044;8.716;2023-03-31T10:10:54;97586.06;;;22.01;35.72
25610;BME280;13479;49.044;8.716;2023-03-31T10:13:26;97567.75;;;22.49;35.91
25610;BME280;13479;49.044;8.716;2023-03-31T10:15:59;97578.13;;;22.74;34.99
25610;BME280;13479;49.044;8.716;2023-03-31T10:18:35;97578.72;;;22.76;35.01
25610;BME280;13479;49.044;8.716;2023-03-31T10:21:03;97569.50;;;22.94;35.33
25610;BME280;13479;49.044;8.716;2023-03-31T10:23:31;97555.88;;;23.46;35.16
25610;BME280;13479;49.044;8.716;2023-03-31T10:25:57;97574.94;;;23.34;34.95
25610;BME280;13479;49.044;8.716;2023-03-31T10:28:23;97569.97;;;23.08;35.06
25610;BME280;13479;49.044;8.716;2023-03-31T10:30:55;97571.47;;;22.99;34.93
25610;BME280;13479;49.044;8.716;2023-03-31T10:33:24;97559.47;;;22.27;35.94
25610;BME280;13479;49.044;8.716;2023-03-31T10:36:01;97526.72;;;22.06;35.97
25610;BME280;13479;49.044;8.716;2023-03-31T10:38:34;97533.91;;;21.31;36.38
25610;BME280;13479;49.044;8.716;2023-03-31T10:41:00;97525.22;;;21.28;37.07
25610;BME280;13479;49.044;8.716;2023-03-31T10:46:04;97494.38;;;22.11;35.94
25610;BME280;13479;49.044;8.716;2023-03-31T10:48:33;97497.56;;;22.25;35.32
25610;BME280;13479;49.044;8.716;2023-03-31T10:51:13;97514.94;;;22.29;35.46
25610;BME280;13479;49.044;8.716;2023-03-31T10:56:39;97517.59;;;21.25;36.83
25610;BME280;13479;49.044;8.716;2023-03-31T11:01:49;97535.03;;;19.55;41.13
25610;BME280;13479;49.044;8.716;2023-03-31T11:04:40;97585.47;;;17.96;49.60
25610;BME280;13479;49.044;8.716;2023-03-31T11:07:30;97623.31;;;16.48;52.00
25610;BME280;13479;49.044;8.716;2023-03-31T11:15:57;97670.91;;;15.13;55.28
25610;BME280;13479;49.044;8.716;2023-03-31T11:21:29;97595.78;;;14.73;54.48
25610;BME280;13479;49.044;8.716;2023-03-31T11:24:29;97589.88;;;14.56;52.74
25610;BME280;13479;49.044;8.716;2023-03-31T11:27:11;97558.06;;;14.33;52.76
25610;BME280;13479;49.044;8.716;2023-03-31T11:29:48;97530.75;;;14.31;52.21
25610;BME280;13479;49.044;8.716;2023-03-31T11:32:35;97516.41;;;14.10;52.74
25610;BME280;13479;49.044;8.716;2023-03-31T11:38:19;97501.06;;;14.47;52.48
25610;BME280;13479;49.044;8.716;2023-03-31T11:40:58;97524.69;;;14.72;52.14
25610;BME280;13479;49.044;8.716;2023-03-31T11:43:33;97534.94;;;15.04;51.12
25610;BME280;13479;49.044;8.716;2023-03-31T11:46:37;97541.94;;;15.47;50.35
25610;BME280;13479;49.044;8.716;2023-03-31T11:49:02;97560.34;;;15.77;50.26
25610;BME280;13479;49.044;8.716;2023-03-31T11:51:42;97587.72;;;15.79;49.00
25610;BME280;13479;49.044;8.716;2023-03-31T11:54:17;97582.00;;;15.88;48.70
25610;BME280;13479;49.044;8.716;2023-03-31T11:56:44;97570.50;;;15.95;49.15
25610;BME280;13479;49.044;8.716;2023-03-31T11:59:14;97561.06;;;16.32;49.64
25610;BME280;13479;49.044;8.716;2023-03-31T12:01:44;97573.84;;;16.44;47.20
25610;BME280;13479;49.044;8.716;2023-03-31T12:09:56;97559.81;;;16.82;47.29
25610;BME280;13479;49.044;8.716;2023-03-31T12:12:32;97550.75;;;16.83;46.58
25610;BME280;13479;49.044;8.716;2023-03-31T12:15:18;97574.66;;;16.91;45.99
25610;BME280;13479;49.044;8.716;2023-03-31T12:17:49;97564.75;;;16.92;44.15
25610;BME280;13479;49.044;8.716;2023-03-31T12:20:29;97559.84;;;16.68;45.00
25610;BME280;13479;49.044;8.716;2023-03-31T12:22:58;97573.44;;;16.40;45.17
25610;BME280;13479;49.044;8.716;2023-03-31T12:25:24;97553.63;;;16.14;45.38
25610;BME280;13479;49.044;8.716;2023-03-31T12:27:56;97566.84;;;16.09;45.36
25610;BME280;13479;49.044;8.716;2023-03-31T12:30:37;97544.50;;;15.82;46.48
25610;BME280;13479;49.044;8.716;2023-03-31T12:35:50;97477.16;;;15.51;46.91
25610;BME280;13479;49.044;8.716;2023-03-31T12:38:41;97480.00;;;15.36;46.99
25610;BME280;13479;49.044;8.716;2023-03-31T12:54:13;97496.81;;;16.52;45.30
25610;BME280;13479;49.044;8.716;2023-03-31T12:57:43;97523.19;;;16.35;45.67
25610;BME280;13479;49.044;8.716;2023-03-31T13:02:32;97461.19;;;16.18;47.05
25610;BME280;13479;49.044;8.716;2023-03-31T13:04:57;97451.28;;;16.46;46.28
25610;BME280;13479;49.044;8.716;2023-03-31T13:09:55;97473.09;;;16.49;46.09
25610;BME280;13479;49.044;8.716;2023-03-31T13:12:23;97467.97;;;16.48;46.20
25610;BME280;13479;49.044;8.716;2023-03-31T13:14:51;97454.19;;;16.38;46.95
25610;BME280;13479;49.044;8.716;2023-03-31T13:17:24;97452.31;;;16.31;45.98
25610;BME280;13479;49.044;8.716;2023-03-31T13:19:50;97490.44;;;16.20;45.93
25610;BME280;13479;49.044;8.716;2023-03-31T13:22:31;97476.16;;;15.79;46.47
25610;BME280;13479;49.044;8.716;2023-03-31T13:27:53;97423.88;;;15.63;48.16
25610;BME280;13479;49.044;8.716;2023-03-31T13:30:52;97387.06;;;15.79;47.85
25610;BME280;13479;49.044;8.716;2023-03-31T13:33:22;97392.22;;;15.87;47.97
25610;BME280;13479;49.044;8.716;2023-03-31T13:39:25;97393.03;;;15.94;47.65
25610;BME280;13479;49.044;8.716;2023-03-31T13:42:17;97419.19;;;15.85;46.81
25610;BME280;13479;49.044;8.716;2023-03-31T13:45:00;97414.84;;;15.71;47.22
25610;BME280;13479;49.044;8.716;2023-03-31T13:58:30;97446.31;;;16.56;46.17
25610;BME280;13479;49.044;8.716;2023-03-31T14:07:17;97469.09;;;16.99;44.50
25610;BME280;13479;49.044;8.716;2023-03-31T14:09:45;97463.50;;;17.07;43.96
25610;BME280;13479;49.044;8.716;2023-03-31T14:12:33;97471.16;;;17.04;43.58
25610;BME280;13479;49.044;8.716;2023-03-31T14:14:59;97485.94;;;17.13;43.36
25610;BME280;13479;49.044;8.716;2023-03-31T14:17:28;97467.06;;;16.88;43.77
25610;BME280;13479;49.044;8.716;2023-03-31T14:23:01;97466.41;;;16.92;43.40
25610;BME280;13479;49.044;8.716;2023-03-31T14:25:47;97450.53;;;16.84;43.60
25610;BME280;13479;49.044;8.716;2023-03-31T14:31:22;97431.63;;;16.72;44.09
25610;BME280;13479;49.044;8.716;2023-03-31T14:34:10;97423.88;;;16.50;44.51
25610;BME280;13479;49.044;8.716;2023-03-31T14:39:32;97402.06;;;16.27;44.48
25610;BME280;13479;49.044;8.716;2023-03-31T14:42:03;97408.22;;;16.27;44.65
25610;BME280;13479;49.044;8.716;2023-03-31T14:44:29;97387.03;;;16.26;45.59
25610;BME280;13479;49.044;8.716;2023-03-31T14:46:56;97362.94;;;16.19;45.65
25610;BME280;13479;49.044;8.716;2023-03-31T14:49:32;97345.25;;;16.18;45.69
25610;BME280;13479;49.044;8.716;2023-03-31T14:52:00;97347.75;;;16.13;46.38
25610;BME280;13479;49.044;8.716;2023-03-31T14:54:33;97351.63;;;16.24;45.76
25610;BME280;13479;49.044;8.716;2023-03-31T14:56:59;97357.19;;;16.22;45.28
25610;BME280;13479;49.044;8.716;2023-03-31T14:59:29;97338.69;;;16.00;45.98
25610;BME280;13479;49.044;8.716;2023-03-31T15:01:58;97330.47;;;15.95;46.15
25610;BME280;13479;49.044;8.716;2023-03-31T15:04:27;97323.84;;;16.04;46.78
25610;BME280;13479;49.044;8.716;2023-03-31T15:06:53;97331.69;;;16.13;46.31
25610;BME280;13479;49.044;8.716;2023-03-31T15:09:22;97352.66;;;16.16;45.99
25610;BME280;13479;49.044;8.716;2023-03-31T15:11:54;97343.66;;;16.03;46.29
25610;BME280;13479;49.044;8.716;2023-03-31T15:14:21;97343.22;;;16.00;46.18
25610;BME280;13479;49.044;8.716;2023-03-31T15:16:48;97356.81;;;16.12;45.73
25610;BME280;13479;49.044;8.716;2023-03-31T15:19:20;97359.66;;;16.17;45.64
25610;BME280;13479;49.044;8.716;2023-03-31T15:21:53;97370.41;;;16.03;45.90
25610;BME280;13479;49.044;8.716;2023-03-31T15:24:20;97380.69;;;16.06;46.22
25610;BME280;13479;49.044;8.716;2023-03-31T15:26:53;97374.09;;;15.82;46.65
25610;BME280;13479;49.044;8.716;2023-03-31T15:29:41;97342.00;;;15.62;49.83
25610;BME280;13479;49.044;8.716;2023-03-31T15:32:15;97396.69;;;15.39;52.24
25610;BME280;13479;49.044;8.716;2023-03-31T15:34:42;97410.72;;;14.86;55.14
25610;BME280;13479;49.044;8.716;2023-03-31T15:37:08;97406.25;;;14.58;55.47
25610;BME280;13479;49.044;8.716;2023-03-31T15:39:35;97403.28;;;14.40;58.05
25610;BME280;13479;49.044;8.716;2023-03-31T15:42:03;97388.25;;;14.32;58.43
25610;BME280;13479;49.044;8.716;2023-03-31T15:44:44;97386.50;;;14.17;58.66
25610;BME280;13479;49.044;8.716;2023-03-31T15:47:20;97385.50;;;14.18;59.10
25610;BME280;13479;49.044;8.716;2023-03-31T15:49:56;97369.38;;;14.33;60.36
25610;BME280;13479;49.044;8.716;2023-03-31T15:52:52;97368.78;;;14.38;59.41
25610;BME280;13479;49.044;8.716;2023-03-31T15:55:27;97356.91;;;14.47;59.10
25610;BME280;13479;49.044;8.716;2023-03-31T15:57:55;97356.53;;;14.57;59.03
25610;BME280;13479;49.044;8.716;2023-03-31T16:02:56;97391.78;;;14.74;56.76
25610;BME280;13479;49.044;8.716;2023-03-31T16:07:57;97457.78;;;14.52;53.35
25610;BME280;13479;49.044;8.716;2023-03-31T16:10:23;97459.78;;;14.43;53.86
25610;BME280;13479;49.044;8.716;2023-03-31T16:15:20;97460.81;;;14.14;53.80
25610;BME280;13479;49.044;8.716;2023-03-31T16:17:55;97473.88;;;14.09;53.12
25610;BME280;13479;49.044;8.716;2023-03-31T16:20:28;97474.41;;;13.97;52.85
25610;BME280;13479;49.044;8.716;2023-03-31T16:22:57;97482.56;;;13.89;52.55
25610;BME280;13479;49.044;8.716;2023-03-31T16:25:24;97493.44;;;13.87;51.55
25610;BME280;13479;49.044;8.716;2023-03-31T16:27:54;97491.13;;;13.84;51.82
25610;BME280;13479;49.044;8.716;2023-03-31T16:30:31;97486.81;;;13.62;51.59
25610;BME280;13479;49.044;8.716;2023-03-31T16:33:17;97504.69;;;13.46;51.62
25610;BME280;13479;49.044;8.716;2023-03-31T16:35:45;97499.56;;;13.44;51.87
25610;BME280;13479;49.044;8.716;2023-03-31T16:38:13;97515.09;;;13.41;51.77
25610;BME280;13479;49.044;8.716;2023-03-31T16:40:42;97511.50;;;13.34;52.00
25610;BME280;13479;49.044;8.716;2023-03-31T16:43:15;97486.94;;;13.38;52.92
25610;BME280;13479;49.044;8.716;2023-03-31T16:45:49;97435.59;;;13.29;55.23
25610;BME280;13479;49.044;8.716;2023-03-31T16:48:16;97437.22;;;13.09;57.31
25610;BME280;13479;49.044;8.716;2023-03-31T16:50:44;97429.22;;;13.09;59.07
25610;BME280;13479;49.044;8.716;2023-03-31T16:53:11;97414.94;;;12.80;61.91
25610;BME280;13479;49.044;8.716;2023-03-31T16:55:37;97445.16;;;12.72;64.16
25610;BME280;13479;49.044;8.716;2023-03-31T16:58:02;97442.16;;;12.30;66.15
25610;BME280;13479;49.044;8.716;2023-03-31T17:00:29;97444.19;;;12.05;67.73
25610;BME280;13479;49.044;8.716;2023-03-31T17:02:56;97453.50;;;11.86;68.61
25610;BME280;13479;49.044;8.716;2023-03-31T17:05:22;97447.41;;;11.77;69.34
25610;BME280;13479;49.044;8.716;2023-03-31T17:07:47;97464.44;;;11.68;70.67
25610;BME280;13479;49.044;8.716;2023-03-31T17:10:12;97470.31;;;11.55;70.82
25610;BME280;13479;49.044;8.716;2023-03-31T17:12:38;97462.53;;;11.53;71.14
25610;BME280;13479;49.044;8.716;2023-03-31T17:15:03;97460.72;;;11.54;72.04
25610;BME280;13479;49.044;8.716;2023-03-31T17:17:29;97462.84;;;11.58;72.56
25610;BME280;13479;49.044;8.716;2023-03-31T17:19:54;97472.38;;;11.44;73.16
25610;BME280;13479;49.044;8.716;2023-03-31T17:22:20;97490.31;;;11.51;73.11
25610;BME280;13479;49.044;8.716;2023-03-31T17:24:46;97501.47;;;11.46;73.69
25610;BME280;13479;49.044;8.716;2023-03-31T17:27:12;97525.25;;;11.39;74.40
25610;BME280;13479;49.044;8.716;2023-03-31T17:29:38;97533.66;;;11.11;75.64
25610;BME280;13479;49.044;8.716;2023-03-31T17:32:03;97522.06;;;11.04;74.94
25610;BME280;13479;49.044;8.716;2023-03-31T17:34:28;97529.38;;;11.02;75.01
25610;BME280;13479;49.044;8.716;2023-03-31T17:36:53;97482.03;;;10.74;76.24
25610;BME280;13479;49.044;8.716;2023-03-31T17:39:21;97480.00;;;10.85;74.62
25610;BME280;13479;49.044;8.716;2023-03-31T17:41:46;97533.47;;;10.73;73.69
25610;BME280;13479;49.044;8.716;2023-03-31T17:44:11;97525.97;;;10.85;73.58
25610;BME280;13479;49.044;8.716;2023-03-31T17:46:36;97542.09;;;10.67;73.62
25610;BME280;13479;49.044;8.716;2023-03-31T17:49:02;97522.25;;;10.38;74.99
25610;BME280;13479;49.044;8.716;2023-03-31T17:51:27;97501.69;;;10.40;74.94
25610;BME280;13479;49.044;8.716;2023-03-31T17:53:53;97487.25;;;10.26;75.08
25610;BME280;13479;49.044;8.716;2023-03-31T17:56:18;97487.78;;;10.13;75.37
25610;BME280;13479;49.044;8.716;2023-03-31T17:58:44;97477.84;;;10.07;75.85
25610;BME280;13479;49.044;8.716;2023-03-31T18:01:10;97483.94;;;10.16;75.93
25610;BME280;13479;49.044;8.716;2023-03-31T18:03:36;97482.13;;;10.08;76.66
25610;BME280;13479;49.044;8.716;2023-03-31T18:06:12;97489.78;;;10.03;76.88
25610;BME280;13479;49.044;8.716;2023-03-31T18:08:39;97494.75;;;10.06;77.08
25610;BME280;13479;49.044;8.716;2023-03-31T18:11:06;97509.66;;;10.07;77.38
25610;BME280;13479;49.044;8.716;2023-03-31T18:13:33;97510.16;;;10.11;77.53
25610;BME280;13479;49.044;8.716;2023-03-31T18:15:59;97512.31;;;10.15;77.44
25610;BME280;13479;49.044;8.716;2023-03-31T18:18:24;97512.97;;;9.93;77.47
25610;BME280;13479;49.044;8.716;2023-03-31T18:20:52;97505.69;;;9.95;78.03
25610;BME280;13479;49.044;8.716;2023-03-31T18:23:17;97521.91;;;10.00;78.11
25610;BME280;13479;49.044;8.716;2023-03-31T18:25:43;97529.84;;;10.00;78.13
25610;BME280;13479;49.044;8.716;2023-03-31T18:28:14;97531.84;;;9.98;78.36
25610;BME280;13479;49.044;8.716;2023-03-31T18:30:39;97528.03;;;9.92;78.61
25610;BME280;13479;49.044;8.716;2023-03-31T18:33:05;97518.94;;;9.95;78.82
25610;BME280;13479;49.044;8.716;2023-03-31T18:35:30;97525.91;;;9.96;79.06
25610;BME280;13479;49.044;8.716;2023-03-31T18:37:56;97533.16;;;9.85;79.66
25610;BME280;13479;49.044;8.716;2023-03-31T18:40:21;97541.47;;;9.91;79.85
25610;BME280;13479;49.044;8.716;2023-03-31T18:42:47;97553.72;;;10.00;79.10
25610;BME280;13479;49.044;8.716;2023-03-31T18:45:13;97568.31;;;10.04;78.63
25610;BME280;13479;49.044;8.716;2023-03-31T18:47:38;97599.13;;;10.13;77.53
25610;BME280;13479;49.044;8.716;2023-03-31T18:50:04;97600.13;;;10.20;77.19